Terminal Aerodrome Forecast
Issued by NWS Sterling, VA

Home | Current Version | Previous Version | Text Only | Print | Product List | Glossary On
Versions: 1 2 3 4 5 6 7 8 9 10 11 12 13 14 15 16 17 18 19
000
FTUS41 KLWX 010500
TAFMRB
TAF
KMRB 010540Z 0106/0206 00000KT P6SM BKN250
     FM011200 17004KT P6SM OVC050
      TEMPO 0114/0117 5SM -SN OVC020
     FM012100 13005KT 6SM -SNPL OVC025
     FM020200 VRB04KT 5SM -FZRAPL OVC007=

USA.gov is the U.S. government's official web portal to all federal, state and local government web resources and services.